sensor_id;sensor_type;location;lat;lon;timestamp;P1;durP1;ratioP1;P2;durP2;ratioP2
68653;SDS011;55636;51.108;13.622;2022-07-29T00:00:17;3.15;;;2.03;;
68653;SDS011;55636;51.108;13.622;2022-07-29T00:01:20;2.50;;;1.88;;
68653;SDS011;55636;51.108;13.622;2022-07-29T00:02:22;4.55;;;2.28;;
68653;SDS011;55636;51.108;13.622;2022-07-29T00:03:24;2.92;;;2.00;;
68653;SDS011;55636;51.108;13.622;2022-07-29T00:04:27;4.65;;;2.10;;
68653;SDS011;55636;51.108;13.622;2022-07-29T00:05:29;2.80;;;2.17;;
68653;SDS011;55636;51.108;13.622;2022-07-29T00:06:33;2.47;;;2.22;;
68653;SDS011;55636;51.108;13.622;2022-07-29T00:07:37;4.45;;;2.22;;
68653;SDS011;55636;51.108;13.622;2022-07-29T00:08:39;3.30;;;1.95;;
68653;SDS011;55636;51.108;13.622;2022-07-29T00:09:41;2.75;;;1.80;;
68653;SDS011;55636;51.108;13.622;2022-07-29T00:10:52;3.22;;;2.20;;
68653;SDS011;55636;51.108;13.622;2022-07-29T00:11:55;2.85;;;2.10;;
68653;SDS011;55636;51.108;13.622;2022-07-29T00:13:00;4.25;;;2.22;;
68653;SDS011;55636;51.108;13.622;2022-07-29T00:14:03;5.05;;;2.30;;
68653;SDS011;55636;51.108;13.622;2022-07-29T00:15:05;3.60;;;2.10;;
68653;SDS011;55636;51.108;13.622;2022-07-29T00:16:08;3.30;;;2.03;;
68653;SDS011;55636;51.108;13.622;2022-07-29T00:17:11;5.50;;;2.40;;
68653;SDS011;55636;51.108;13.622;2022-07-29T00:18:19;3.13;;;2.25;;
68653;SDS011;55636;51.108;13.622;2022-07-29T00:19:21;3.75;;;2.05;;
68653;SDS011;55636;51.108;13.622;2022-07-29T00:20:24;5.13;;;1.95;;
68653;SDS011;55636;51.108;13.622;2022-07-29T00:21:26;4.75;;;2.50;;
68653;SDS011;55636;51.108;13.622;2022-07-29T00:22:28;2.45;;;2.10;;
68653;SDS011;55636;51.108;13.622;2022-07-29T00:23:30;3.28;;;2.20;;
68653;SDS011;55636;51.108;13.622;2022-07-29T00:24:38;3.90;;;1.90;;
68653;SDS011;55636;51.108;13.622;2022-07-29T00:25:43;3.47;;;2.03;;
68653;SDS011;55636;51.108;13.622;2022-07-29T00:26:45;5.25;;;2.03;;
68653;SDS011;55636;51.108;13.622;2022-07-29T00:27:47;5.30;;;2.50;;
68653;SDS011;55636;51.108;13.622;2022-07-29T00:28:49;3.80;;;2.22;;
68653;SDS011;55636;51.108;13.622;2022-07-29T00:29:52;5.95;;;2.40;;
68653;SDS011;55636;51.108;13.622;2022-07-29T00:30:54;4.28;;;2.28;;
68653;SDS011;55636;51.108;13.622;2022-07-29T00:31:56;5.55;;;2.20;;
68653;SDS011;55636;51.108;13.622;2022-07-29T00:32:59;6.30;;;2.70;;
68653;SDS011;55636;51.108;13.622;2022-07-29T00:34:01;2.58;;;2.25;;
68653;SDS011;55636;51.108;13.622;2022-07-29T00:35:04;3.47;;;2.38;;
68653;SDS011;55636;51.108;13.622;2022-07-29T00:36:26;4.03;;;2.25;;
68653;SDS011;55636;51.108;13.622;2022-07-29T00:37:28;5.97;;;2.40;;
68653;SDS011;55636;51.108;13.622;2022-07-29T00:38:32;4.47;;;2.60;;
68653;SDS011;55636;51.108;13.622;2022-07-29T00:39:35;3.85;;;2.15;;
68653;SDS011;55636;51.108;13.622;2022-07-29T00:40:37;6.32;;;2.20;;
68653;SDS011;55636;51.108;13.622;2022-07-29T00:41:43;3.25;;;2.25;;
68653;SDS011;55636;51.108;13.622;2022-07-29T00:42:47;3.80;;;2.20;;
68653;SDS011;55636;51.108;13.622;2022-07-29T00:43:51;2.85;;;1.90;;
68653;SDS011;55636;51.108;13.622;2022-07-29T00:44:53;3.40;;;2.30;;
68653;SDS011;55636;51.108;13.622;2022-07-29T00:45:55;4.45;;;2.10;;
68653;SDS011;55636;51.108;13.622;2022-07-29T00:46:57;3.80;;;2.10;;
68653;SDS011;55636;51.108;13.622;2022-07-29T00:48:00;3.85;;;2.20;;
68653;SDS011;55636;51.108;13.622;2022-07-29T00:49:03;3.13;;;1.85;;
68653;SDS011;55636;51.108;13.622;2022-07-29T00:50:06;4.60;;;2.35;;
68653;SDS011;55636;51.108;13.622;2022-07-29T00:51:09;5.50;;;2.17;;
68653;SDS011;55636;51.108;13.622;2022-07-29T00:52:13;6.13;;;2.25;;
68653;SDS011;55636;51.108;13.622;2022-07-29T00:53:18;3.60;;;2.08;;
68653;SDS011;55636;51.108;13.622;2022-07-29T00:54:22;3.72;;;2.15;;
68653;SDS011;55636;51.108;13.622;2022-07-29T00:55:25;4.60;;;2.25;;
68653;SDS011;55636;51.108;13.622;2022-07-29T00:56:28;3.38;;;2.35;;
68653;SDS011;55636;51.108;13.622;2022-07-29T00:57:32;4.60;;;2.10;;
68653;SDS011;55636;51.108;13.622;2022-07-29T00:58:35;4.65;;;2.20;;
68653;SDS011;55636;51.108;13.622;2022-07-29T00:59:37;3.05;;;2.13;;
68653;SDS011;55636;51.108;13.622;2022-07-29T01:00:40;3.55;;;2.33;;
68653;SDS011;55636;51.108;13.622;2022-07-29T01:01:42;2.63;;;1.90;;
68653;SDS011;55636;51.108;13.622;2022-07-29T01:02:45;3.35;;;1.90;;
68653;SDS011;55636;51.108;13.622;2022-07-29T01:03:52;3.58;;;1.95;;
68653;SDS011;55636;51.108;13.622;2022-07-29T01:04:55;3.97;;;2.20;;
68653;SDS011;55636;51.108;13.622;2022-07-29T01:05:58;4.85;;;2.20;;
68653;SDS011;55636;51.108;13.622;2022-07-29T01:07:01;2.58;;;1.88;;
68653;SDS011;55636;51.108;13.622;2022-07-29T01:08:04;3.17;;;2.05;;
68653;SDS011;55636;51.108;13.622;2022-07-29T01:09:07;2.53;;;1.92;;
68653;SDS011;55636;51.108;13.622;2022-07-29T01:10:11;2.75;;;2.10;;
68653;SDS011;55636;51.108;13.622;2022-07-29T01:11:15;4.00;;;2.05;;
68653;SDS011;55636;51.108;13.622;2022-07-29T01:12:21;3.55;;;2.20;;
68653;SDS011;55636;51.108;13.622;2022-07-29T01:13:26;2.55;;;2.20;;
68653;SDS011;55636;51.108;13.622;2022-07-29T01:14:30;5.78;;;2.20;;
68653;SDS011;55636;51.108;13.622;2022-07-29T01:15:33;3.05;;;1.83;;
68653;SDS011;55636;51.108;13.622;2022-07-29T01:18:32;2.65;;;1.88;;
68653;SDS011;55636;51.108;13.622;2022-07-29T01:22:14;3.63;;;2.10;;
68653;SDS011;55636;51.108;13.622;2022-07-29T01:25:17;2.17;;;1.83;;
68653;SDS011;55636;51.108;13.622;2022-07-29T01:29:05;3.08;;;1.92;;
68653;SDS011;55636;51.108;13.622;2022-07-29T01:30:13;3.75;;;2.05;;
68653;SDS011;55636;51.108;13.622;2022-07-29T01:31:18;2.75;;;2.10;;
68653;SDS011;55636;51.108;13.622;2022-07-29T01:32:31;3.10;;;2.25;;
68653;SDS011;55636;51.108;13.622;2022-07-29T01:33:38;3.35;;;2.10;;
68653;SDS011;55636;51.108;13.622;2022-07-29T01:34:55;2.55;;;1.85;;
68653;SDS011;55636;51.108;13.622;2022-07-29T01:36:07;3.30;;;2.22;;
68653;SDS011;55636;51.108;13.622;2022-07-29T01:38:21;3.70;;;2.17;;
68653;SDS011;55636;51.108;13.622;2022-07-29T01:39:31;3.92;;;2.35;;
68653;SDS011;55636;51.108;13.622;2022-07-29T01:40:50;2.97;;;2.50;;
68653;SDS011;55636;51.108;13.622;2022-07-29T01:43:11;3.38;;;2.20;;
68653;SDS011;55636;51.108;13.622;2022-07-29T01:44:20;2.83;;;2.35;;
68653;SDS011;55636;51.108;13.622;2022-07-29T01:46:51;3.67;;;2.38;;
68653;SDS011;55636;51.108;13.622;2022-07-29T01:48:02;5.28;;;2.60;;
68653;SDS011;55636;51.108;13.622;2022-07-29T01:49:08;4.88;;;2.30;;
68653;SDS011;55636;51.108;13.622;2022-07-29T01:50:16;4.75;;;2.50;;
68653;SDS011;55636;51.108;13.622;2022-07-29T01:51:23;2.88;;;2.25;;
68653;SDS011;55636;51.108;13.622;2022-07-29T01:52:43;3.58;;;2.65;;
68653;SDS011;55636;51.108;13.622;2022-07-29T01:54:53;3.42;;;2.70;;
68653;SDS011;55636;51.108;13.622;2022-07-29T01:55:59;4.45;;;2.90;;
68653;SDS011;55636;51.108;13.622;2022-07-29T01:57:03;4.43;;;2.60;;
68653;SDS011;55636;51.108;13.622;2022-07-29T01:58:09;4.10;;;2.72;;
68653;SDS011;55636;51.108;13.622;2022-07-29T01:59:14;3.80;;;2.72;;
68653;SDS011;55636;51.108;13.622;2022-07-29T02:00:21;3.60;;;2.72;;
68653;SDS011;55636;51.108;13.622;2022-07-29T02:01:25;8.38;;;3.13;;
68653;SDS011;55636;51.108;13.622;2022-07-29T02:02:29;4.93;;;2.38;;
68653;SDS011;55636;51.108;13.622;2022-07-29T02:03:34;4.47;;;2.70;;
68653;SDS011;55636;51.108;13.622;2022-07-29T02:04:38;4.38;;;3.05;;
68653;SDS011;55636;51.108;13.622;2022-07-29T02:05:42;4.95;;;2.88;;
68653;SDS011;55636;51.108;13.622;2022-07-29T02:06:49;6.90;;;3.03;;
68653;SDS011;55636;51.108;13.622;2022-07-29T02:07:54;8.73;;;3.28;;
68653;SDS011;55636;51.108;13.622;2022-07-29T02:08:59;6.45;;;2.95;;
68653;SDS011;55636;51.108;13.622;2022-07-29T02:10:05;5.13;;;3.30;;
68653;SDS011;55636;51.108;13.622;2022-07-29T02:11:10;6.75;;;2.97;;
68653;SDS011;55636;51.108;13.622;2022-07-29T02:12:14;4.22;;;2.97;;
68653;SDS011;55636;51.108;13.622;2022-07-29T02:13:19;5.82;;;3.42;;
68653;SDS011;55636;51.108;13.622;2022-07-29T02:14:24;7.75;;;3.10;;
68653;SDS011;55636;51.108;13.622;2022-07-29T02:15:30;4.38;;;2.72;;
68653;SDS011;55636;51.108;13.622;2022-07-29T02:16:35;6.55;;;3.13;;
68653;SDS011;55636;51.108;13.622;2022-07-29T02:17:41;4.47;;;2.70;;
68653;SDS011;55636;51.108;13.622;2022-07-29T02:18:47;3.67;;;2.90;;
68653;SDS011;55636;51.108;13.622;2022-07-29T02:19:53;3.85;;;2.85;;
68653;SDS011;55636;51.108;13.622;2022-07-29T02:20:59;6.95;;;2.90;;
68653;SDS011;55636;51.108;13.622;2022-07-29T02:22:02;4.90;;;2.90;;
68653;SDS011;55636;51.108;13.622;2022-07-29T02:23:07;4.43;;;2.75;;
68653;SDS011;55636;51.108;13.622;2022-07-29T02:24:13;4.47;;;2.80;;
68653;SDS011;55636;51.108;13.622;2022-07-29T02:25:18;5.35;;;2.80;;
68653;SDS011;55636;51.108;13.622;2022-07-29T02:26:23;5.43;;;3.08;;
68653;SDS011;55636;51.108;13.622;2022-07-29T02:27:28;3.75;;;2.55;;
68653;SDS011;55636;51.108;13.622;2022-07-29T02:28:31;6.10;;;2.60;;
68653;SDS011;55636;51.108;13.622;2022-07-29T02:29:35;4.55;;;2.70;;
68653;SDS011;55636;51.108;13.622;2022-07-29T02:30:41;4.68;;;2.63;;
68653;SDS011;55636;51.108;13.622;2022-07-29T02:31:45;4.75;;;2.50;;
68653;SDS011;55636;51.108;13.622;2022-07-29T02:32:49;5.60;;;2.92;;
68653;SDS011;55636;51.108;13.622;2022-07-29T02:33:53;3.78;;;2.90;;
68653;SDS011;55636;51.108;13.622;2022-07-29T02:34:57;4.97;;;2.72;;
68653;SDS011;55636;51.108;13.622;2022-07-29T02:36:00;6.43;;;2.50;;
68653;SDS011;55636;51.108;13.622;2022-07-29T02:37:04;3.33;;;2.55;;
68653;SDS011;55636;51.108;13.622;2022-07-29T02:38:07;4.47;;;2.70;;
68653;SDS011;55636;51.108;13.622;2022-07-29T02:39:32;4.22;;;2.75;;
68653;SDS011;55636;51.108;13.622;2022-07-29T02:40:37;4.57;;;2.38;;
68653;SDS011;55636;51.108;13.622;2022-07-29T02:41:45;3.53;;;2.50;;
68653;SDS011;55636;51.108;13.622;2022-07-29T02:42:53;5.53;;;2.80;;
68653;SDS011;55636;51.108;13.622;2022-07-29T02:43:57;5.35;;;2.40;;
68653;SDS011;55636;51.108;13.622;2022-07-29T02:45:05;4.10;;;2.58;;
68653;SDS011;55636;51.108;13.622;2022-07-29T02:46:11;5.15;;;2.63;;
68653;SDS011;55636;51.108;13.622;2022-07-29T02:47:31;4.25;;;2.50;;
68653;SDS011;55636;51.108;13.622;2022-07-29T02:48:48;2.45;;;2.25;;
68653;SDS011;55636;51.108;13.622;2022-07-29T02:50:06;3.63;;;2.55;;
68653;SDS011;55636;51.108;13.622;2022-07-29T02:51:16;5.07;;;2.40;;
68653;SDS011;55636;51.108;13.622;2022-07-29T02:52:47;4.53;;;2.50;;
68653;SDS011;55636;51.108;13.622;2022-07-29T02:53:58;5.80;;;2.63;;
68653;SDS011;55636;51.108;13.622;2022-07-29T02:55:22;5.43;;;2.65;;
68653;SDS011;55636;51.108;13.622;2022-07-29T02:56:37;3.60;;;2.35;;
68653;SDS011;55636;51.108;13.622;2022-07-29T02:59:03;4.47;;;2.80;;
68653;SDS011;55636;51.108;13.622;2022-07-29T03:00:08;5.15;;;2.63;;
68653;SDS011;55636;51.108;13.622;2022-07-29T03:01:16;3.67;;;2.80;;
68653;SDS011;55636;51.108;13.622;2022-07-29T03:02:24;3.72;;;2.40;;
68653;SDS011;55636;51.108;13.622;2022-07-29T03:03:29;4.10;;;2.40;;
68653;SDS011;55636;51.108;13.622;2022-07-29T03:04:53;4.78;;;2.63;;
68653;SDS011;55636;51.108;13.622;2022-07-29T03:05:59;3.92;;;2.40;;
68653;SDS011;55636;51.108;13.622;2022-07-29T03:07:04;4.43;;;2.78;;
68653;SDS011;55636;51.108;13.622;2022-07-29T03:08:08;3.20;;;2.30;;
68653;SDS011;55636;51.108;13.622;2022-07-29T03:09:12;6.25;;;2.42;;
68653;SDS011;55636;51.108;13.622;2022-07-29T03:10:16;2.38;;;2.17;;
68653;SDS011;55636;51.108;13.622;2022-07-29T03:11:19;3.97;;;2.67;;
68653;SDS011;55636;51.108;13.622;2022-07-29T03:12:42;4.03;;;2.63;;
68653;SDS011;55636;51.108;13.622;2022-07-29T03:13:45;5.43;;;2.80;;
68653;SDS011;55636;51.108;13.622;2022-07-29T03:14:48;5.25;;;2.75;;
68653;SDS011;55636;51.108;13.622;2022-07-29T03:15:50;5.30;;;3.13;;
68653;SDS011;55636;51.108;13.622;2022-07-29T03:16:54;5.88;;;2.78;;
68653;SDS011;55636;51.108;13.622;2022-07-29T03:17:57;6.57;;;3.22;;
68653;SDS011;55636;51.108;13.622;2022-07-29T03:19:00;4.55;;;3.00;;
68653;SDS011;55636;51.108;13.622;2022-07-29T03:20:03;4.18;;;3.10;;
68653;SDS011;55636;51.108;13.622;2022-07-29T03:21:06;4.63;;;2.80;;
68653;SDS011;55636;51.108;13.622;2022-07-29T03:22:09;6.47;;;3.03;;
68653;SDS011;55636;51.108;13.622;2022-07-29T03:23:12;3.92;;;3.10;;
68653;SDS011;55636;51.108;13.622;2022-07-29T03:24:31;6.13;;;3.10;;
68653;SDS011;55636;51.108;13.622;2022-07-29T03:25:34;6.13;;;3.00;;
68653;SDS011;55636;51.108;13.622;2022-07-29T03:26:36;4.63;;;3.15;;
68653;SDS011;55636;51.108;13.622;2022-07-29T03:27:41;6.18;;;3.15;;
68653;SDS011;55636;51.108;13.622;2022-07-29T03:28:44;5.68;;;3.28;;
68653;SDS011;55636;51.108;13.622;2022-07-29T03:29:47;4.82;;;3.60;;
68653;SDS011;55636;51.108;13.622;2022-07-29T03:30:51;5.45;;;3.13;;
68653;SDS011;55636;51.108;13.622;2022-07-29T03:31:53;4.63;;;3.40;;
68653;SDS011;55636;51.108;13.622;2022-07-29T03:32:56;5.78;;;3.35;;
68653;SDS011;55636;51.108;13.622;2022-07-29T03:33:59;5.78;;;3.72;;
68653;SDS011;55636;51.108;13.622;2022-07-29T03:35:02;5.18;;;3.42;;
68653;SDS011;55636;51.108;13.622;2022-07-29T03:36:05;6.55;;;3.60;;
68653;SDS011;55636;51.108;13.622;2022-07-29T03:37:07;5.05;;;3.35;;
68653;SDS011;55636;51.108;13.622;2022-07-29T03:38:09;6.25;;;3.53;;
68653;SDS011;55636;51.108;13.622;2022-07-29T03:39:14;5.00;;;3.67;;
68653;SDS011;55636;51.108;13.622;2022-07-29T03:40:22;5.05;;;4.00;;
68653;SDS011;55636;51.108;13.622;2022-07-29T03:41:37;6.05;;;3.80;;
68653;SDS011;55636;51.108;13.622;2022-07-29T03:42:43;8.45;;;3.83;;
68653;SDS011;55636;51.108;13.622;2022-07-29T03:43:47;7.68;;;4.22;;
68653;SDS011;55636;51.108;13.622;2022-07-29T03:44:51;7.32;;;4.22;;
68653;SDS011;55636;51.108;13.622;2022-07-29T03:45:54;7.88;;;4.38;;
68653;SDS011;55636;51.108;13.622;2022-07-29T03:46:58;6.50;;;4.25;;
68653;SDS011;55636;51.108;13.622;2022-07-29T03:48:05;5.45;;;4.20;;
68653;SDS011;55636;51.108;13.622;2022-07-29T03:49:11;7.70;;;4.30;;
68653;SDS011;55636;51.108;13.622;2022-07-29T03:50:18;9.75;;;5.05;;
68653;SDS011;55636;51.108;13.622;2022-07-29T03:51:22;7.35;;;4.90;;
68653;SDS011;55636;51.108;13.622;2022-07-29T03:52:34;10.18;;;4.90;;
68653;SDS011;55636;51.108;13.622;2022-07-29T03:53:37;6.70;;;4.95;;
68653;SDS011;55636;51.108;13.622;2022-07-29T03:54:39;6.15;;;4.82;;
68653;SDS011;55636;51.108;13.622;2022-07-29T03:55:45;6.97;;;5.10;;
68653;SDS011;55636;51.108;13.622;2022-07-29T03:56:50;10.85;;;5.28;;
68653;SDS011;55636;51.108;13.622;2022-07-29T03:57:54;9.57;;;5.28;;
68653;SDS011;55636;51.108;13.622;2022-07-29T03:58:59;7.53;;;4.70;;
68653;SDS011;55636;51.108;13.622;2022-07-29T04:00:04;7.70;;;4.60;;
68653;SDS011;55636;51.108;13.622;2022-07-29T04:01:07;8.10;;;5.30;;
68653;SDS011;55636;51.108;13.622;2022-07-29T04:02:12;7.32;;;5.00;;
68653;SDS011;55636;51.108;13.622;2022-07-29T04:03:23;7.95;;;5.07;;
68653;SDS011;55636;51.108;13.622;2022-07-29T04:04:26;7.07;;;4.75;;
68653;SDS011;55636;51.108;13.622;2022-07-29T04:05:29;7.93;;;4.60;;
68653;SDS011;55636;51.108;13.622;2022-07-29T04:06:38;7.68;;;4.57;;
68653;SDS011;55636;51.108;13.622;2022-07-29T04:07:47;6.32;;;4.60;;
68653;SDS011;55636;51.108;13.622;2022-07-29T04:08:50;8.15;;;4.85;;
68653;SDS011;55636;51.108;13.622;2022-07-29T04:09:53;6.32;;;4.40;;
68653;SDS011;55636;51.108;13.622;2022-07-29T04:10:55;6.05;;;4.20;;
68653;SDS011;55636;51.108;13.622;2022-07-29T04:11:57;7.25;;;4.30;;
68653;SDS011;55636;51.108;13.622;2022-07-29T04:13:04;9.00;;;4.63;;
68653;SDS011;55636;51.108;13.622;2022-07-29T04:14:07;5.93;;;4.22;;
68653;SDS011;55636;51.108;13.622;2022-07-29T04:15:09;8.57;;;4.38;;
68653;SDS011;55636;51.108;13.622;2022-07-29T04:16:12;5.90;;;4.63;;
68653;SDS011;55636;51.108;13.622;2022-07-29T04:17:16;6.47;;;4.03;;
68653;SDS011;55636;51.108;13.622;2022-07-29T04:18:19;6.78;;;3.95;;
68653;SDS011;55636;51.108;13.622;2022-07-29T04:19:21;7.70;;;4.50;;
68653;SDS011;55636;51.108;13.622;2022-07-29T04:20:23;7.03;;;4.00;;
68653;SDS011;55636;51.108;13.622;2022-07-29T04:21:25;5.72;;;4.05;;
68653;SDS011;55636;51.108;13.622;2022-07-29T04:22:27;6.57;;;4.00;;
68653;SDS011;55636;51.108;13.622;2022-07-29T04:23:30;7.45;;;4.63;;
68653;SDS011;55636;51.108;13.622;2022-07-29T04:24:35;7.07;;;4.70;;
68653;SDS011;55636;51.108;13.622;2022-07-29T04:25:38;5.35;;;4.25;;
68653;SDS011;55636;51.108;13.622;2022-07-29T04:26:47;8.60;;;5.00;;
68653;SDS011;55636;51.108;13.622;2022-07-29T04:27:50;8.40;;;5.22;;
68653;SDS011;55636;51.108;13.622;2022-07-29T04:29:04;7.15;;;5.05;;
68653;SDS011;55636;51.108;13.622;2022-07-29T04:30:06;7.40;;;5.30;;
68653;SDS011;55636;51.108;13.622;2022-07-29T04:31:09;7.03;;;4.88;;
68653;SDS011;55636;51.108;13.622;2022-07-29T04:32:12;7.93;;;4.50;;
68653;SDS011;55636;51.108;13.622;2022-07-29T04:33:14;5.90;;;4.40;;
68653;SDS011;55636;51.108;13.622;2022-07-29T04:34:16;7.10;;;4.47;;
68653;SDS011;55636;51.108;13.622;2022-07-29T04:35:20;7.05;;;4.40;;
68653;SDS011;55636;51.108;13.622;2022-07-29T04:36:22;7.97;;;4.47;;
68653;SDS011;55636;51.108;13.622;2022-07-29T04:37:30;5.68;;;4.47;;
68653;SDS011;55636;51.108;13.622;2022-07-29T04:38:32;7.13;;;4.53;;
68653;SDS011;55636;51.108;13.622;2022-07-29T04:39:35;4.93;;;3.97;;
68653;SDS011;55636;51.108;13.622;2022-07-29T04:40:37;7.60;;;4.57;;
68653;SDS011;55636;51.108;13.622;2022-07-29T04:41:40;6.70;;;4.07;;
68653;SDS011;55636;51.108;13.622;2022-07-29T04:42:43;8.35;;;4.80;;
68653;SDS011;55636;51.108;13.622;2022-07-29T04:43:48;6.78;;;4.10;;
68653;SDS011;55636;51.108;13.622;2022-07-29T04:44:52;6.47;;;4.00;;
68653;SDS011;55636;51.108;13.622;2022-07-29T04:45:54;5.47;;;4.15;;
68653;SDS011;55636;51.108;13.622;2022-07-29T04:47:01;7.93;;;4.55;;
68653;SDS011;55636;51.108;13.622;2022-07-29T04:48:03;6.75;;;4.32;;
68653;SDS011;55636;51.108;13.622;2022-07-29T04:49:05;5.00;;;4.00;;
68653;SDS011;55636;51.108;13.622;2022-07-29T04:50:08;7.45;;;4.25;;
68653;SDS011;55636;51.108;13.622;2022-07-29T04:51:11;6.75;;;4.32;;
68653;SDS011;55636;51.108;13.622;2022-07-29T04:52:14;8.30;;;3.80;;
68653;SDS011;55636;51.108;13.622;2022-07-29T04:53:16;5.93;;;3.65;;
68653;SDS011;55636;51.108;13.622;2022-07-29T04:54:18;5.28;;;3.72;;
68653;SDS011;55636;51.108;13.622;2022-07-29T04:55:20;6.05;;;4.05;;
68653;SDS011;55636;51.108;13.622;2022-07-29T04:56:23;6.00;;;4.18;;
68653;SDS011;55636;51.108;13.622;2022-07-29T04:57:25;7.95;;;4.22;;
68653;SDS011;55636;51.108;13.622;2022-07-29T04:58:27;6.65;;;3.75;;
68653;SDS011;55636;51.108;13.622;2022-07-29T04:59:29;7.13;;;4.28;;
68653;SDS011;55636;51.108;13.622;2022-07-29T05:00:31;5.35;;;4.13;;
68653;SDS011;55636;51.108;13.622;2022-07-29T05:01:35;6.35;;;4.22;;
68653;SDS011;55636;51.108;13.622;2022-07-29T05:02:37;5.65;;;3.65;;
68653;SDS011;55636;51.108;13.622;2022-07-29T05:03:40;5.57;;;4.00;;
68653;SDS011;55636;51.108;13.622;2022-07-29T05:04:42;4.75;;;3.78;;
68653;SDS011;55636;51.108;13.622;2022-07-29T05:05:44;6.60;;;3.92;;
68653;SDS011;55636;51.108;13.622;2022-07-29T05:06:47;5.28;;;3.90;;
68653;SDS011;55636;51.108;13.622;2022-07-29T05:07:49;6.45;;;4.40;;
68653;SDS011;55636;51.108;13.622;2022-07-29T05:08:51;7.82;;;4.15;;
68653;SDS011;55636;51.108;13.622;2022-07-29T05:09:56;8.00;;;4.35;;
68653;SDS011;55636;51.108;13.622;2022-07-29T05:10:59;6.50;;;3.95;;
68653;SDS011;55636;51.108;13.622;2022-07-29T05:12:13;7.82;;;4.13;;
68653;SDS011;55636;51.108;13.622;2022-07-29T05:13:15;6.57;;;4.28;;
68653;SDS011;55636;51.108;13.622;2022-07-29T05:14:18;5.13;;;3.92;;
68653;SDS011;55636;51.108;13.622;2022-07-29T05:15:21;6.32;;;4.07;;
68653;SDS011;55636;51.108;13.622;2022-07-29T05:16:24;9.55;;;4.43;;
68653;SDS011;55636;51.108;13.622;2022-07-29T05:17:26;6.15;;;4.28;;
68653;SDS011;55636;51.108;13.622;2022-07-29T05:18:28;6.03;;;4.18;;
68653;SDS011;55636;51.108;13.622;2022-07-29T05:19:31;8.70;;;4.40;;
68653;SDS011;55636;51.108;13.622;2022-07-29T05:20:33;7.13;;;4.47;;
68653;SDS011;55636;51.108;13.622;2022-07-29T05:21:36;10.85;;;4.80;;
68653;SDS011;55636;51.108;13.622;2022-07-29T05:22:39;7.53;;;5.18;;
68653;SDS011;55636;51.108;13.622;2022-07-29T05:23:41;7.30;;;5.22;;
68653;SDS011;55636;51.108;13.622;2022-07-29T05:24:43;8.07;;;5.50;;
68653;SDS011;55636;51.108;13.622;2022-07-29T05:25:45;9.07;;;5.35;;
68653;SDS011;55636;51.108;13.622;2022-07-29T05:26:48;8.50;;;5.78;;
68653;SDS011;55636;51.108;13.622;2022-07-29T05:27:50;10.27;;;6.50;;
68653;SDS011;55636;51.108;13.622;2022-07-29T05:28:52;8.82;;;5.65;;
68653;SDS011;55636;51.108;13.622;2022-07-29T05:29:56;10.10;;;6.28;;
68653;SDS011;55636;51.108;13.622;2022-07-29T05:30:58;10.18;;;6.35;;
68653;SDS011;55636;51.108;13.622;2022-07-29T05:32:01;13.98;;;8.38;;
68653;SDS011;55636;51.108;13.622;2022-07-29T05:33:03;18.52;;;9.38;;
68653;SDS011;55636;51.108;13.622;2022-07-29T05:34:05;17.15;;;11.13;;
68653;SDS011;55636;51.108;13.622;2022-07-29T05:35:08;13.23;;;9.63;;
68653;SDS011;55636;51.108;13.622;2022-07-29T05:36:10;14.40;;;9.70;;
68653;SDS011;55636;51.108;13.622;2022-07-29T05:37:13;16.80;;;11.10;;
68653;SDS011;55636;51.108;13.622;2022-07-29T05:38:15;17.02;;;12.60;;
68653;SDS011;55636;51.108;13.622;2022-07-29T05:39:18;19.83;;;13.20;;
68653;SDS011;55636;51.108;13.622;2022-07-29T05:40:20;17.10;;;14.18;;
68653;SDS011;55636;51.108;13.622;2022-07-29T05:41:22;23.95;;;13.93;;
68653;SDS011;55636;51.108;13.622;2022-07-29T05:42:25;20.00;;;13.88;;
68653;SDS011;55636;51.108;13.622;2022-07-29T05:43:28;21.85;;;14.10;;
68653;SDS011;55636;51.108;13.622;2022-07-29T05:44:30;21.58;;;13.95;;
68653;SDS011;55636;51.108;13.622;2022-07-29T05:45:40;19.17;;;14.10;;
68653;SDS011;55636;51.108;13.622;2022-07-29T05:46:50;21.70;;;14.55;;
68653;SDS011;55636;51.108;13.622;2022-07-29T05:47:55;18.35;;;12.88;;
68653;SDS011;55636;51.108;13.622;2022-07-29T05:48:57;17.98;;;13.25;;
68653;SDS011;55636;51.108;13.622;2022-07-29T05:50:00;16.33;;;12.93;;
68653;SDS011;55636;51.108;13.622;2022-07-29T05:51:02;18.23;;;13.80;;
68653;SDS011;55636;51.108;13.622;2022-07-29T05:52:05;18.25;;;13.05;;
68653;SDS011;55636;51.108;13.622;2022-07-29T05:53:07;18.08;;;12.75;;
68653;SDS011;55636;51.108;13.622;2022-07-29T05:54:21;20.00;;;13.30;;
68653;SDS011;55636;51.108;13.622;2022-07-29T05:55:24;16.48;;;13.65;;
68653;SDS011;55636;51.108;13.622;2022-07-29T05:56:26;17.60;;;12.68;;
68653;SDS011;55636;51.108;13.622;2022-07-29T05:57:28;21.10;;;13.70;;
68653;SDS011;55636;51.108;13.622;2022-07-29T05:58:30;18.10;;;12.93;;
68653;SDS011;55636;51.108;13.622;2022-07-29T05:59:36;20.70;;;13.57;;
68653;SDS011;55636;51.108;13.622;2022-07-29T06:00:40;20.65;;;13.95;;
68653;SDS011;55636;51.108;13.622;2022-07-29T06:01:42;18.75;;;14.30;;
68653;SDS011;55636;51.108;13.622;2022-07-29T06:02:44;16.08;;;12.88;;
68653;SDS011;55636;51.108;13.622;2022-07-29T06:03:47;17.38;;;13.07;;
68653;SDS011;55636;51.108;13.622;2022-07-29T06:04:49;20.50;;;13.23;;
68653;SDS011;55636;51.108;13.622;2022-07-29T06:05:51;17.05;;;13.23;;
68653;SDS011;55636;51.108;13.622;2022-07-29T06:06:54;17.42;;;13.10;;
68653;SDS011;55636;51.108;13.622;2022-07-29T06:07:56;22.08;;;12.90;;
68653;SDS011;55636;51.108;13.622;2022-07-29T06:08:58;16.77;;;12.68;;
68653;SDS011;55636;51.108;13.622;2022-07-29T06:10:13;16.50;;;12.32;;
68653;SDS011;55636;51.108;13.622;2022-07-29T06:11:15;16.50;;;11.98;;
68653;SDS011;55636;51.108;13.622;2022-07-29T06:12:17;17.92;;;12.57;;
68653;SDS011;55636;51.108;13.622;2022-07-29T06:13:19;17.98;;;13.23;;
68653;SDS011;55636;51.108;13.622;2022-07-29T06:14:22;18.02;;;12.68;;
68653;SDS011;55636;51.108;13.622;2022-07-29T06:15:24;16.52;;;11.80;;
68653;SDS011;55636;51.108;13.622;2022-07-29T06:16:26;19.88;;;12.45;;
68653;SDS011;55636;51.108;13.622;2022-07-29T06:17:31;16.35;;;11.85;;
68653;SDS011;55636;51.108;13.622;2022-07-29T06:18:33;14.45;;;10.82;;
68653;SDS011;55636;51.108;13.622;2022-07-29T06:19:35;15.52;;;11.23;;
68653;SDS011;55636;51.108;13.622;2022-07-29T06:20:38;20.15;;;11.35;;
68653;SDS011;55636;51.108;13.622;2022-07-29T06:21:41;15.68;;;11.55;;
68653;SDS011;55636;51.108;13.622;2022-07-29T06:22:47;15.88;;;11.52;;
68653;SDS011;55636;51.108;13.622;2022-07-29T06:23:49;14.38;;;10.70;;
68653;SDS011;55636;51.108;13.622;2022-07-29T06:24:52;14.68;;;9.95;;
68653;SDS011;55636;51.108;13.622;2022-07-29T06:25:54;11.00;;;8.90;;
68653;SDS011;55636;51.108;13.622;2022-07-29T06:26:56;14.48;;;9.95;;
68653;SDS011;55636;51.108;13.622;2022-07-29T06:27:58;14.88;;;10.05;;
68653;SDS011;55636;51.108;13.622;2022-07-29T06:29:00;17.70;;;10.70;;
68653;SDS011;55636;51.108;13.622;2022-07-29T06:30:03;15.15;;;10.18;;
68653;SDS011;55636;51.108;13.622;2022-07-29T06:31:08;13.98;;;9.30;;
68653;SDS011;55636;51.108;13.622;2022-07-29T06:32:11;15.43;;;9.70;;
68653;SDS011;55636;51.108;13.622;2022-07-29T06:33:19;12.43;;;9.02;;
68653;SDS011;55636;51.108;13.622;2022-07-29T06:34:22;11.98;;;9.10;;
68653;SDS011;55636;51.108;13.622;2022-07-29T06:35:24;12.95;;;9.27;;
68653;SDS011;55636;51.108;13.622;2022-07-29T06:36:43;15.50;;;9.75;;
68653;SDS011;55636;51.108;13.622;2022-07-29T06:37:46;12.00;;;8.93;;